createdAt,value
2022-08-04T00:14:03.652Z,3337.26464
2022-08-04T00:29:06.121Z,3466.01396
2022-08-04T00:44:08.350Z,3573.23282
2022-08-04T00:59:10.561Z,3561.98916
2022-08-04T01:14:12.986Z,3743.38674
2022-08-04T01:29:16.047Z,3651.6134
2022-08-04T01:44:18.433Z,3371.05469
2022-08-04T01:59:20.643Z,3052.85917
2022-08-04T02:14:22.930Z,3079.43465
2022-08-04T02:29:27.316Z,3130.53146
2022-08-04T02:44:32.779Z,2887.75563
2022-08-04T02:59:35.033Z,2824.35182
2022-08-04T03:14:37.258Z,2667.29552
2022-08-04T03:29:39.456Z,2463.01183
2022-08-04T03:44:41.657Z,2471.61623
2022-08-04T03:59:48.854Z,2100.96561
2022-08-04T04:14:51.459Z,1972.12593
2022-08-04T04:29:53.668Z,1791.13974
2022-08-04T04:44:55.955Z,1657.87981
2022-08-04T04:59:58.128Z,1675.54816
2022-08-04T05:15:00.329Z,1707.90635
2022-08-04T05:30:02.583Z,1750.1551
2022-08-04T05:45:04.826Z,1592.57224
2022-08-04T06:00:19.876Z,1787.74528
2022-08-04T06:15:46.130Z,1753.40818
2022-08-04T06:30:48.727Z,1537.20853
2022-08-04T06:45:50.969Z,1410.76821
2022-08-04T07:00:53.161Z,1260.01832
2022-08-04T07:15:55.375Z,1523.96387
2022-08-04T07:30:57.604Z,1647.26475
2022-08-04T07:45:59.835Z,1741.53896
2022-08-04T08:01:02.071Z,1763.24037
2022-08-04T08:16:05.227Z,1463.28904
2022-08-04T08:31:07.455Z,1579.24156
2022-08-04T08:46:09.631Z,1396.84158
2022-08-04T09:01:11.974Z,1284.02955
2022-08-04T09:16:14.432Z,1151.34306
2022-08-04T09:31:16.813Z,1172.32859
2022-08-04T09:46:19.082Z,1074.41204
2022-08-04T10:01:23.590Z,1034.35723
2022-08-04T10:16:26.307Z,1055.1832
2022-08-04T10:31:28.596Z,997.18161
2022-08-04T10:46:30.957Z,1009.99336
2022-08-04T11:02:01.826Z,999.29429
2022-08-04T11:17:05.605Z,976.53604
2022-08-04T11:32:07.778Z,996.47937
2022-08-04T11:47:09.966Z,967.1912
2022-08-04T12:02:12.234Z,979.23925
2022-08-04T12:17:14.573Z,997.88484
2022-08-04T12:32:18.310Z,956.08158
2022-08-04T12:47:27.588Z,915.8581
2022-08-04T13:02:39.229Z,821.71943
2022-08-04T13:17:41.475Z,775.34296
2022-08-04T13:32:43.765Z,642.53978
2022-08-04T13:47:45.963Z,549.17937
2022-08-04T14:02:48.199Z,472.45585
2022-08-04T14:17:50.581Z,451.91431
2022-08-04T14:32:52.974Z,426.80799
2022-08-04T14:47:58.791Z,361.19701
2022-08-04T15:03:01.016Z,361.57253
2022-08-04T15:18:03.185Z,352.41278
2022-08-04T15:33:05.357Z,419.21355
2022-08-04T15:48:07.550Z,428.36002
2022-08-04T16:03:09.775Z,482.1241
2022-08-04T16:18:25.592Z,466.53067
2022-08-04T16:33:28.296Z,529.03733
2022-08-04T16:48:46.607Z,590.47102
2022-08-04T17:03:56.084Z,553.04683
2022-08-04T17:19:00.154Z,532.2243
2022-08-04T17:34:02.358Z,549.60641
2022-08-04T17:49:04.742Z,627.1462
2022-08-04T18:04:06.915Z,674.4215
2022-08-04T18:19:09.930Z,670.58229
2022-08-04T18:34:20.509Z,719.74919
2022-08-04T18:50:58.737Z,867.03481
2022-08-04T19:06:12.385Z,827.48588
2022-08-04T19:21:14.741Z,854.98539
2022-08-04T19:36:17.267Z,892.18209
2022-08-04T19:51:19.708Z,893.87289
2022-08-04T20:06:24.789Z,975.86257
2022-08-04T20:21:54.016Z,995.77812
2022-08-04T20:36:58.814Z,1336.1667
2022-08-04T20:52:04.885Z,1355.3645
2022-08-04T21:07:10.937Z,1750.1551
2022-08-04T21:22:29.778Z,1916.04654
2022-08-04T21:37:56.688Z,2090.1039
2022-08-04T21:53:01.016Z,2127.82005
2022-08-04T22:08:03.362Z,2123.03126
2022-08-04T22:23:06.389Z,2414.67628
2022-08-04T22:38:27.857Z,2502.21095
2022-08-04T22:53:39.713Z,2565.73034
2022-08-04T23:08:43.290Z,2456.59773
2022-08-04T23:24:00.701Z,2586.83781
2022-08-04T23:39:05.541Z,2425.02193
2022-08-04T23:54:08.139Z,2465.15731
